createdAt,value
2019-02-21T00:00:53.913Z,36.93
2019-02-21T00:03:21.368Z,38.93
2019-02-21T00:05:48.823Z,45.57
2019-02-21T00:08:16.290Z,42.63
2019-02-21T00:10:43.726Z,35.27
2019-02-21T00:13:12.003Z,37.43
2019-02-21T00:15:39.428Z,35.77
2019-02-21T00:18:06.890Z,39.33
2019-02-21T00:20:34.315Z,38.47
2019-02-21T00:23:01.773Z,40.77
2019-02-21T00:25:29.203Z,42.60
2019-02-21T00:27:56.672Z,31.13
2019-02-21T00:30:34.583Z,32.70
2019-02-21T00:32:53.363Z,37.13
2019-02-21T00:35:20.818Z,39.37
2019-02-21T00:37:48.288Z,32.90
2019-02-21T00:40:16.016Z,28.80
2019-02-21T00:42:43.488Z,30.83
2019-02-21T00:45:10.937Z,40.23
2019-02-21T00:47:38.403Z,32.97
2019-02-21T00:50:06.062Z,34.50
2019-02-21T00:52:33.690Z,34.37
2019-02-21T00:55:01.164Z,35.33
2019-02-21T00:57:28.601Z,39.17
2019-02-21T00:59:56.095Z,38.77
2019-02-21T01:02:23.575Z,35.87
2019-02-21T01:04:51.058Z,38.57
2019-02-21T01:07:18.483Z,43.03
2019-02-21T01:09:45.939Z,38.67
2019-02-21T01:12:13.399Z,38.10
2019-02-21T01:14:40.858Z,39.00
2019-02-21T01:17:08.292Z,42.43
2019-02-21T01:19:35.784Z,44.57
2019-02-21T01:22:03.429Z,43.13
2019-02-21T01:24:30.893Z,37.37
2019-02-21T01:26:58.326Z,38.47
2019-02-21T01:29:25.771Z,38.00
2019-02-21T01:31:53.196Z,39.77
2019-02-21T01:34:20.665Z,41.90
2019-02-21T01:36:48.088Z,39.70
2019-02-21T01:39:15.564Z,41.10
2019-02-21T01:41:42.990Z,47.23
2019-02-21T01:44:10.430Z,47.40
2019-02-21T01:46:37.902Z,43.13
2019-02-21T01:49:05.346Z,40.30
2019-02-21T01:51:32.793Z,41.73
2019-02-21T01:54:00.227Z,38.83
2019-02-21T01:56:27.691Z,40.57
2019-02-21T01:58:55.627Z,39.47
2019-02-21T02:01:23.091Z,37.93
2019-02-21T02:03:50.512Z,43.57
2019-02-21T02:06:17.967Z,41.63
2019-02-21T02:08:45.455Z,39.50
2019-02-21T02:11:12.918Z,38.90
2019-02-21T02:13:40.338Z,39.00
2019-02-21T02:16:07.798Z,41.63
2019-02-21T02:18:35.237Z,39.43
2019-02-21T02:21:02.688Z,44.67
2019-02-21T02:23:30.132Z,45.13
2019-02-21T02:25:57.602Z,41.33
2019-02-21T02:28:25.054Z,37.63
2019-02-21T02:30:52.510Z,39.77
2019-02-21T02:33:20.004Z,49.60
2019-02-21T02:35:47.506Z,46.90
2019-02-21T02:38:14.971Z,48.17
2019-02-21T02:40:42.447Z,42.73
2019-02-21T02:43:09.894Z,44.57
2019-02-21T02:45:37.339Z,48.00
2019-02-21T02:48:04.832Z,42.97
2019-02-21T02:50:32.296Z,44.97
2019-02-21T02:52:59.701Z,44.70
2019-02-21T02:55:27.148Z,43.83
2019-02-21T02:57:54.643Z,44.40
2019-02-21T03:00:22.070Z,47.10
2019-02-21T03:02:49.533Z,51.93
2019-02-21T03:05:17.125Z,53.03
2019-02-21T03:07:44.658Z,50.17
2019-02-21T03:10:13.136Z,54.57
2019-02-21T03:12:40.578Z,57.07
2019-02-21T03:15:08.048Z,52.87
2019-02-21T03:17:35.923Z,46.53
2019-02-21T03:20:03.478Z,43.53
2019-02-21T03:22:30.959Z,53.53
2019-02-21T03:24:58.394Z,45.73
2019-02-21T03:27:25.835Z,52.97
2019-02-21T03:29:53.284Z,50.20
2019-02-21T03:32:20.748Z,51.57
2019-02-21T03:34:48.202Z,47.10
2019-02-21T03:37:15.687Z,45.60
2019-02-21T03:39:43.125Z,46.77
2019-02-21T03:42:10.572Z,54.77
2019-02-21T03:44:38.147Z,57.83
2019-02-21T03:47:05.896Z,57.27
2019-02-21T03:49:33.367Z,39.43
2019-02-21T03:52:00.854Z,47.90
2019-02-21T03:54:28.308Z,40.33
2019-02-21T03:56:55.756Z,37.40
2019-02-21T03:59:23.258Z,39.77
2019-02-21T04:01:50.707Z,41.83
2019-02-21T04:04:18.181Z,43.87
2019-02-21T04:06:45.580Z,41.90
2019-02-21T04:09:13.096Z,43.33
2019-02-21T04:11:40.703Z,36.67
2019-02-21T04:14:08.180Z,37.60
2019-02-21T04:16:35.656Z,34.33
2019-02-21T04:19:03.112Z,35.93
2019-02-21T04:21:30.566Z,40.80
2019-02-21T04:23:58.025Z,40.30
2019-02-21T04:26:25.448Z,41.73
2019-02-21T04:28:52.896Z,46.80
2019-02-21T04:31:20.347Z,41.73
2019-02-21T04:33:47.820Z,36.37
2019-02-21T04:36:15.255Z,34.73
2019-02-21T04:38:42.726Z,34.70
2019-02-21T04:41:10.416Z,36.70
2019-02-21T04:43:37.855Z,39.63
2019-02-21T04:46:05.304Z,38.60
2019-02-21T04:48:32.738Z,37.67
2019-02-21T04:51:00.220Z,38.57
2019-02-21T04:53:27.647Z,36.37
2019-02-21T04:55:55.099Z,44.83
2019-02-21T04:58:22.552Z,33.43
2019-02-21T05:00:50.039Z,38.17
2019-02-21T05:03:17.506Z,35.33
2019-02-21T05:05:44.988Z,35.17
2019-02-21T05:08:12.421Z,47.13
2019-02-21T05:10:39.880Z,40.83
2019-02-21T05:13:07.325Z,44.77
2019-02-21T05:15:34.792Z,51.13
2019-02-21T05:18:02.230Z,44.43
2019-02-21T05:20:30.077Z,48.90
2019-02-21T05:22:57.532Z,51.50
2019-02-21T05:25:26.448Z,45.90
2019-02-21T05:27:59.773Z,57.63
2019-02-21T05:30:27.570Z,55.10
2019-02-21T05:33:06.883Z,66.33
2019-02-21T05:35:40.111Z,59.00
2019-02-21T05:38:32.142Z,54.60
2019-02-21T05:41:19.136Z,57.37
2019-02-21T05:44:06.075Z,51.80
2019-02-21T05:46:51.682Z,48.93
2019-02-21T05:49:27.629Z,56.00
2019-02-21T05:52:17.565Z,50.73
2019-02-21T05:55:13.537Z,51.57
2019-02-21T05:57:59.073Z,40.03
2019-02-21T06:01:01.058Z,38.70
2019-02-21T06:03:36.132Z,37.27
2019-02-21T06:06:26.307Z,40.80
2019-02-21T06:09:04.171Z,45.57
2019-02-21T06:11:38.506Z,45.43
2019-02-21T06:14:24.389Z,37.73
2019-02-21T06:17:10.282Z,46.30
2019-02-21T06:19:51.638Z,51.77
2019-02-21T06:22:34.491Z,44.33
2019-02-21T06:25:29.928Z,42.00
2019-02-21T06:28:02.146Z,47.50
2019-02-21T06:30:36.659Z,43.80
2019-02-21T06:33:05.599Z,46.53
2019-02-21T06:35:33.135Z,48.80
2019-02-21T06:38:00.700Z,47.13
2019-02-21T06:40:28.134Z,44.20
2019-02-21T06:42:55.539Z,54.77
2019-02-21T06:45:22.978Z,51.23
2019-02-21T06:47:50.415Z,53.57
2019-02-21T06:50:26.348Z,52.67
2019-02-21T06:52:47.095Z,56.00
2019-02-21T06:55:14.532Z,60.83
2019-02-21T06:57:42.057Z,70.17
2019-02-21T07:00:09.959Z,66.93
2019-02-21T07:02:37.375Z,64.20
2019-02-21T07:05:04.852Z,62.83
2019-02-21T07:07:32.284Z,74.93
2019-02-21T07:10:00.015Z,64.10
2019-02-21T07:12:27.437Z,56.47
2019-02-21T07:14:54.890Z,63.43
2019-02-21T07:17:22.318Z,58.20
2019-02-21T07:19:49.803Z,56.13
2019-02-21T07:22:18.123Z,54.33
2019-02-21T07:24:48.796Z,56.07
2019-02-21T07:27:16.224Z,57.90
2019-02-21T07:29:43.684Z,60.70
2019-02-21T07:32:11.109Z,52.93
2019-02-21T07:34:38.558Z,52.73
2019-02-21T07:37:06.004Z,54.07
2019-02-21T07:39:36.326Z,49.37
2019-02-21T07:42:02.698Z,45.33
2019-02-21T07:44:30.145Z,41.10
2019-02-21T07:46:57.581Z,53.27
2019-02-21T07:49:25.790Z,55.10
2019-02-21T07:51:53.229Z,55.13
2019-02-21T07:54:20.682Z,57.23
2019-02-21T07:56:48.130Z,50.73
2019-02-21T07:59:15.847Z,60.47
2019-02-21T08:01:43.295Z,49.73
2019-02-21T08:04:10.726Z,59.47
2019-02-21T08:06:38.196Z,55.03
2019-02-21T08:09:07.437Z,56.63
2019-02-21T08:11:34.885Z,49.23
2019-02-21T08:14:02.375Z,47.37
2019-02-21T08:16:29.863Z,60.50
2019-02-21T08:18:58.167Z,48.17
2019-02-21T08:21:25.684Z,49.50
2019-02-21T08:23:53.223Z,47.30
2019-02-21T08:26:20.663Z,50.60
2019-02-21T08:28:48.106Z,43.80
2019-02-21T08:31:15.560Z,47.00
2019-02-21T08:34:08.370Z,47.53
2019-02-21T08:36:35.828Z,57.73
2019-02-21T08:39:05.443Z,48.73
2019-02-21T08:41:32.934Z,49.43
2019-02-21T08:44:00.445Z,51.03
2019-02-21T08:46:27.831Z,49.97
2019-02-21T08:48:55.243Z,49.63
2019-02-21T08:51:22.692Z,48.07
2019-02-21T08:53:50.132Z,48.27
2019-02-21T08:56:17.583Z,56.00
2019-02-21T08:58:45.020Z,54.27
2019-02-21T09:01:12.478Z,52.93
2019-02-21T09:03:39.918Z,54.40
2019-02-21T09:06:07.378Z,53.57
2019-02-21T09:08:37.086Z,52.53
2019-02-21T09:11:04.302Z,53.33
2019-02-21T09:13:31.760Z,58.23
2019-02-21T09:15:59.618Z,60.13
2019-02-21T09:18:27.058Z,48.20
2019-02-21T09:20:54.572Z,56.10
2019-02-21T09:23:21.985Z,54.00
2019-02-21T09:25:49.697Z,57.27
2019-02-21T09:28:17.307Z,56.67
2019-02-21T09:30:44.796Z,56.57
2019-02-21T09:33:17.458Z,57.33
2019-02-21T09:35:41.506Z,55.90
2019-02-21T09:38:08.998Z,59.37
2019-02-21T09:40:36.444Z,56.00
2019-02-21T09:43:03.922Z,58.87
2019-02-21T09:45:32.821Z,60.73
2019-02-21T09:48:00.486Z,66.37
2019-02-21T09:50:27.942Z,53.63
2019-02-21T09:52:55.456Z,57.97
2019-02-21T09:55:22.955Z,56.80
2019-02-21T09:57:50.739Z,60.15
2019-02-21T10:00:18.901Z,59.27
2019-02-21T10:02:46.397Z,51.65
2019-02-21T10:05:13.857Z,55.50
2019-02-21T10:07:41.324Z,55.58
2019-02-21T10:10:13.787Z,50.10
2019-02-21T10:12:41.225Z,55.55
2019-02-21T10:15:09.086Z,49.63
2019-02-21T10:17:36.583Z,51.90
2019-02-21T10:20:05.935Z,49.35
2019-02-21T10:22:33.361Z,48.50
2019-02-21T10:25:00.902Z,50.23
2019-02-21T10:27:28.342Z,49.95
2019-02-21T10:29:55.879Z,49.60
2019-02-21T10:32:23.376Z,41.33
2019-02-21T10:34:53.019Z,51.75
2019-02-21T10:37:20.192Z,41.88
2019-02-21T10:39:48.036Z,46.98
2019-02-21T10:42:15.523Z,45.38
2019-02-21T10:44:43.023Z,35.05
2019-02-21T10:47:10.491Z,43.63
2019-02-21T10:49:37.971Z,41.80
2019-02-21T10:52:05.423Z,38.92
2019-02-21T10:54:32.919Z,40.63
2019-02-21T10:57:00.397Z,45.85
2019-02-21T10:59:27.905Z,50.60
2019-02-21T11:01:55.362Z,48.42
2019-02-21T11:04:22.841Z,48.02
2019-02-21T11:06:50.296Z,51.68
2019-02-21T11:09:21.986Z,42.70
2019-02-21T11:11:49.460Z,33.48
2019-02-21T11:14:17.326Z,30.88
2019-02-21T11:16:44.848Z,37.45
2019-02-21T11:19:12.290Z,36.08
2019-02-21T11:21:39.735Z,37.03
2019-02-21T11:24:07.185Z,36.10
2019-02-21T11:26:54.127Z,34.20
2019-02-21T11:29:21.658Z,39.98
2019-02-21T11:31:49.108Z,32.03
2019-02-21T11:34:16.564Z,37.40
2019-02-21T11:36:44.051Z,31.12
2019-02-21T11:39:11.564Z,29.12
2019-02-21T11:41:39.072Z,33.55
2019-02-21T11:44:06.542Z,30.92
2019-02-21T11:46:33.990Z,30.45
2019-02-21T11:49:01.475Z,31.07
2019-02-21T11:51:28.969Z,27.48
2019-02-21T11:53:56.504Z,30.62
2019-02-21T11:56:23.991Z,35.68
2019-02-21T11:58:51.740Z,32.55
2019-02-21T12:01:19.323Z,31.73
2019-02-21T12:03:46.769Z,26.65
2019-02-21T12:06:14.259Z,36.93
2019-02-21T12:08:41.719Z,29.42
2019-02-21T12:11:09.210Z,33.25
2019-02-21T12:13:36.692Z,36.85
2019-02-21T12:16:04.202Z,26.87
2019-02-21T12:18:31.691Z,32.28
2019-02-21T12:20:59.245Z,32.40
2019-02-21T12:23:26.756Z,30.45
2019-02-21T12:25:54.267Z,27.82
2019-02-21T12:28:21.798Z,28.70
2019-02-21T12:30:49.219Z,31.62
2019-02-21T12:33:16.727Z,31.20
2019-02-21T12:35:44.154Z,30.25
2019-02-21T12:38:11.658Z,31.45
2019-02-21T12:40:39.276Z,30.75
2019-02-21T12:43:06.855Z,34.35
2019-02-21T12:45:34.414Z,36.10
2019-02-21T12:48:02.398Z,33.92
2019-02-21T12:50:29.950Z,26.60
2019-02-21T12:52:57.422Z,25.45
2019-02-21T12:55:29.318Z,37.40
2019-02-21T12:57:54.162Z,31.12
2019-02-21T13:00:21.751Z,25.85
2019-02-21T13:02:49.276Z,26.87
2019-02-21T13:05:16.712Z,26.65
2019-02-21T13:07:44.247Z,26.02
2019-02-21T13:10:13.258Z,23.15
2019-02-21T13:12:40.720Z,28.50
2019-02-21T13:15:09.502Z,24.02
2019-02-21T13:17:37.000Z,30.17
2019-02-21T13:20:05.022Z,23.75
2019-02-21T13:22:32.485Z,27.73
2019-02-21T13:25:00.015Z,27.13
2019-02-21T13:27:27.496Z,26.45
2019-02-21T13:29:55.010Z,20.75
2019-02-21T13:32:22.459Z,24.45
2019-02-21T13:34:50.279Z,25.48
2019-02-21T13:37:28.596Z,25.05
2019-02-21T13:39:50.043Z,32.38
2019-02-21T13:42:17.570Z,34.53
2019-02-21T13:44:45.043Z,25.95
2019-02-21T13:47:12.562Z,24.50
2019-02-21T13:49:40.137Z,20.97
2019-02-21T13:52:07.608Z,24.85
2019-02-21T13:54:35.077Z,30.62
2019-02-21T13:57:02.767Z,27.50
2019-02-21T13:59:30.284Z,26.05
2019-02-21T14:01:57.747Z,24.45
2019-02-21T14:04:25.211Z,26.25
2019-02-21T14:06:52.682Z,25.35
2019-02-21T14:09:20.178Z,24.12
2019-02-21T14:11:47.628Z,26.85
2019-02-21T14:14:15.089Z,28.12
2019-02-21T14:16:46.653Z,28.52
2019-02-21T14:19:11.851Z,25.25
2019-02-21T14:21:39.394Z,22.67
2019-02-21T14:24:06.883Z,33.18
2019-02-21T14:26:34.485Z,23.40
2019-02-21T14:29:21.420Z,21.02
2019-02-21T14:31:49.030Z,24.47
2019-02-21T14:34:16.538Z,21.17
2019-02-21T14:36:44.075Z,31.85
2019-02-21T14:39:11.720Z,29.52
2019-02-21T14:41:39.264Z,21.25
2019-02-21T14:44:06.759Z,21.52
2019-02-21T14:46:34.938Z,22.13
2019-02-21T14:49:02.518Z,27.85
2019-02-21T14:51:30.037Z,23.92
2019-02-21T14:53:57.584Z,26.90
2019-02-21T14:56:25.091Z,24.57
2019-02-21T14:58:52.767Z,24.00
2019-02-21T15:01:20.345Z,23.50
2019-02-21T15:03:48.208Z,27.45
2019-02-21T15:06:26.443Z,26.97
2019-02-21T15:08:45.036Z,23.90
2019-02-21T15:11:12.567Z,29.32
2019-02-21T15:13:40.161Z,30.25
2019-02-21T15:16:07.713Z,22.00
2019-02-21T15:18:35.189Z,28.40
2019-02-21T15:21:02.750Z,24.92
2019-02-21T15:23:30.237Z,21.20
2019-02-21T15:25:57.754Z,22.42
2019-02-21T15:28:25.440Z,21.50
2019-02-21T15:30:52.871Z,20.17
2019-02-21T15:33:20.662Z,23.77
2019-02-21T15:35:57.015Z,19.32
2019-02-21T15:38:26.286Z,24.18
2019-02-21T15:40:53.774Z,20.02
2019-02-21T15:43:21.308Z,20.62
2019-02-21T15:45:48.803Z,23.65
2019-02-21T15:48:16.322Z,25.02
2019-02-21T15:50:43.753Z,24.27
2019-02-21T15:53:11.278Z,22.87
2019-02-21T15:55:38.731Z,24.23
2019-02-21T15:58:06.204Z,20.57
2019-02-21T16:00:33.669Z,24.47
2019-02-21T16:03:01.458Z,17.57
2019-02-21T16:05:28.886Z,21.55
2019-02-21T16:07:56.360Z,27.10
2019-02-21T16:10:23.856Z,18.67
2019-02-21T16:12:51.686Z,20.00
2019-02-21T16:15:19.366Z,23.73
2019-02-21T16:17:47.574Z,23.05
2019-02-21T16:20:15.222Z,25.97
2019-02-21T16:22:42.929Z,21.60
2019-02-21T16:25:12.442Z,25.62
2019-02-21T16:27:39.971Z,23.73
2019-02-21T16:30:07.605Z,28.27
2019-02-21T16:32:35.055Z,25.57
2019-02-21T16:35:02.497Z,27.73
2019-02-21T16:37:29.900Z,21.30
2019-02-21T16:39:57.371Z,24.60
2019-02-21T16:42:24.799Z,29.55
2019-02-21T16:44:52.247Z,29.35
2019-02-21T16:47:19.681Z,25.35
2019-02-21T16:49:47.152Z,24.15
2019-02-21T16:52:14.579Z,27.32
2019-02-21T16:54:42.017Z,30.02
2019-02-21T16:57:09.489Z,24.47
2019-02-21T16:59:36.948Z,27.13
2019-02-21T17:02:04.417Z,28.85
2019-02-21T17:04:31.851Z,27.50
2019-02-21T17:06:59.293Z,29.25
2019-02-21T17:09:26.758Z,28.75
2019-02-21T17:11:54.221Z,25.95
2019-02-21T17:14:21.739Z,28.23
2019-02-21T17:16:49.167Z,24.60
2019-02-21T17:19:16.701Z,26.50
2019-02-21T17:21:44.201Z,27.93
2019-02-21T17:24:11.782Z,28.57
2019-02-21T17:26:39.611Z,27.77
2019-02-21T17:29:07.095Z,32.98
2019-02-21T17:31:34.597Z,28.17
2019-02-21T17:34:02.077Z,27.45
2019-02-21T17:36:29.515Z,24.92
2019-02-21T17:38:57.138Z,34.17
2019-02-21T17:41:24.601Z,31.45
2019-02-21T17:43:52.119Z,29.50
2019-02-21T17:46:19.520Z,30.97
2019-02-21T17:48:46.947Z,33.63
2019-02-21T17:51:14.415Z,33.00
2019-02-21T17:53:41.880Z,31.60
2019-02-21T17:56:09.359Z,37.85
2019-02-21T17:58:36.792Z,41.30
2019-02-21T18:01:04.855Z,41.13
2019-02-21T18:03:33.855Z,43.30
2019-02-21T18:06:01.762Z,39.35
2019-02-21T18:08:29.198Z,37.65
2019-02-21T18:10:56.705Z,39.30
2019-02-21T18:13:24.146Z,37.77
2019-02-21T18:15:51.637Z,38.53
2019-02-21T18:18:19.076Z,45.55
2019-02-21T18:20:46.551Z,38.65
2019-02-21T18:23:14.877Z,41.27
2019-02-21T18:25:46.051Z,34.60
2019-02-21T18:28:13.521Z,34.60
2019-02-21T18:30:41.002Z,41.50
2019-02-21T18:33:27.899Z,43.67
2019-02-21T18:35:55.355Z,45.70
2019-02-21T18:38:22.834Z,36.60
2019-02-21T18:40:50.366Z,46.73
2019-02-21T18:43:17.823Z,47.23
2019-02-21T18:45:47.063Z,47.27
2019-02-21T18:48:14.871Z,39.97
2019-02-21T18:50:42.331Z,43.10
2019-02-21T18:53:09.821Z,41.87
2019-02-21T18:55:37.318Z,48.60
2019-02-21T18:58:04.799Z,42.47
2019-02-21T19:00:32.287Z,41.73
2019-02-21T19:02:59.779Z,38.77
2019-02-21T19:05:35.761Z,44.37
2019-02-21T19:08:05.168Z,35.17
2019-02-21T19:10:27.899Z,38.73
2019-02-21T19:12:55.439Z,38.23
2019-02-21T19:15:24.148Z,35.83
2019-02-21T19:17:51.635Z,36.80
2019-02-21T19:20:19.133Z,34.93
2019-02-21T19:22:46.595Z,37.48
2019-02-21T19:25:14.270Z,42.93
2019-02-21T19:27:41.747Z,38.98
2019-02-21T19:30:12.856Z,39.70
2019-02-21T19:32:40.322Z,41.93
2019-02-21T19:35:07.828Z,30.95
2019-02-21T19:37:35.272Z,38.48
2019-02-21T19:40:03.219Z,35.40
2019-02-21T19:42:30.698Z,38.53
2019-02-21T19:44:58.138Z,39.73
2019-02-21T19:47:25.656Z,47.50
2019-02-21T19:49:53.099Z,41.00
2019-02-21T19:52:20.581Z,41.23
2019-02-21T19:54:48.026Z,39.97
2019-02-21T19:57:15.497Z,41.53
2019-02-21T19:59:42.962Z,42.87
2019-02-21T20:02:10.419Z,37.97
2019-02-21T20:04:37.925Z,43.83
2019-02-21T20:07:05.365Z,43.50
2019-02-21T20:09:33.171Z,41.53
2019-02-21T20:12:00.642Z,41.93
2019-02-21T20:14:28.106Z,38.77
2019-02-21T20:16:55.533Z,41.43
2019-02-21T20:19:22.990Z,41.53
2019-02-21T20:21:50.427Z,46.77
2019-02-21T20:24:17.879Z,39.73
2019-02-21T20:26:45.323Z,35.23
2019-02-21T20:29:12.918Z,41.57
2019-02-21T20:31:40.384Z,41.23
2019-02-21T20:34:07.844Z,40.93
2019-02-21T20:36:35.357Z,45.43
2019-02-21T20:39:03.966Z,47.60
2019-02-21T20:41:31.434Z,40.67
2019-02-21T20:43:58.896Z,39.90
2019-02-21T20:46:26.349Z,38.97
2019-02-21T20:48:53.841Z,47.03
2019-02-21T20:51:21.353Z,38.17
2019-02-21T20:53:48.843Z,40.33
2019-02-21T20:56:16.294Z,43.20
2019-02-21T20:58:44.102Z,40.67
2019-02-21T21:01:12.849Z,39.00
2019-02-21T21:03:40.292Z,43.28
2019-02-21T21:06:07.787Z,38.03
2019-02-21T21:08:42.800Z,42.08
2019-02-21T21:11:04.602Z,38.60
2019-02-21T21:13:51.499Z,43.27
2019-02-21T21:16:18.998Z,49.10
2019-02-21T21:18:46.435Z,45.37
2019-02-21T21:21:13.920Z,43.50
2019-02-21T21:23:41.364Z,40.50
2019-02-21T21:26:08.862Z,37.33
2019-02-21T21:28:36.308Z,48.50
2019-02-21T21:31:03.872Z,43.00
2019-02-21T21:33:31.604Z,41.37
2019-02-21T21:35:59.106Z,41.47
2019-02-21T21:38:26.563Z,44.17
2019-02-21T21:40:54.327Z,49.37
2019-02-21T21:43:21.780Z,48.63
2019-02-21T21:45:49.257Z,47.00
2019-02-21T21:48:16.693Z,48.37
2019-02-21T21:50:44.163Z,49.67
2019-02-21T21:53:11.592Z,47.33
2019-02-21T21:55:39.104Z,41.45
2019-02-21T21:58:06.555Z,48.97
2019-02-21T22:00:34.050Z,49.05
2019-02-21T22:03:01.492Z,52.33
2019-02-21T22:05:28.963Z,44.07
2019-02-21T22:07:56.422Z,49.27
2019-02-21T22:10:23.891Z,48.87
2019-02-21T22:12:51.328Z,42.93
2019-02-21T22:15:18.798Z,46.63
2019-02-21T22:17:46.243Z,48.23
2019-02-21T22:20:13.692Z,44.80
2019-02-21T22:22:41.154Z,46.77
2019-02-21T22:25:09.495Z,54.20
2019-02-21T22:27:36.957Z,55.13
2019-02-21T22:30:05.171Z,50.57
2019-02-21T22:32:32.623Z,45.27
2019-02-21T22:35:00.092Z,47.30
2019-02-21T22:37:27.740Z,45.07
2019-02-21T22:39:55.195Z,46.23
2019-02-21T22:42:22.657Z,51.40
2019-02-21T22:44:50.115Z,50.53
2019-02-21T22:47:17.571Z,53.40
2019-02-21T22:49:45.000Z,49.17
2019-02-21T22:52:12.450Z,51.10
2019-02-21T22:54:39.889Z,56.17
2019-02-21T22:57:07.350Z,57.63
2019-02-21T22:59:34.788Z,58.57
2019-02-21T23:02:02.249Z,52.37
2019-02-21T23:05:14.532Z,50.83
2019-02-21T23:07:56.074Z,50.07
2019-02-21T23:10:23.521Z,52.37
2019-02-21T23:12:50.966Z,62.20
2019-02-21T23:15:18.419Z,58.93
2019-02-21T23:17:45.876Z,61.77
2019-02-21T23:20:13.307Z,57.27
2019-02-21T23:22:40.779Z,58.07
2019-02-21T23:25:08.343Z,55.27
2019-02-21T23:27:35.808Z,55.90
2019-02-21T23:30:07.358Z,53.63
2019-02-21T23:32:34.854Z,59.10
2019-02-21T23:35:02.302Z,52.90
2019-02-21T23:37:29.735Z,61.40
2019-02-21T23:39:57.245Z,57.47
2019-02-21T23:42:24.673Z,55.40
2019-02-21T23:44:52.150Z,55.27
2019-02-21T23:47:19.579Z,62.43
2019-02-21T23:49:47.046Z,54.50
2019-02-21T23:52:14.501Z,58.03
2019-02-21T23:54:41.963Z,61.03
2019-02-21T23:57:09.403Z,50.57
2019-02-21T23:59:36.875Z,57.07
